createdAt,value
2019-02-02T00:01:30.274Z,11.65
2019-02-02T00:03:59.962Z,11.57
2019-02-02T00:06:29.252Z,11.50
2019-02-02T00:08:58.748Z,12.03
2019-02-02T00:11:28.179Z,12.63
2019-02-02T00:13:57.796Z,12.17
2019-02-02T00:16:27.908Z,12.83
2019-02-02T00:18:59.346Z,12.47
2019-02-02T00:21:28.509Z,11.47
2019-02-02T00:23:58.237Z,12.40
2019-02-02T00:26:28.274Z,12.70
2019-02-02T00:28:58.019Z,12.93
2019-02-02T00:31:28.408Z,13.63
2019-02-02T00:33:58.588Z,14.03
2019-02-02T00:36:29.609Z,14.63
2019-02-02T00:38:58.688Z,14.77
2019-02-02T00:41:28.711Z,13.68
2019-02-02T00:43:58.580Z,15.10
2019-02-02T00:46:28.306Z,13.95
2019-02-02T00:48:59.028Z,13.83
2019-02-02T00:51:28.457Z,14.75
2019-02-02T00:53:58.517Z,14.53
2019-02-02T00:56:28.644Z,14.27
2019-02-02T00:58:58.892Z,13.83
2019-02-02T01:01:28.556Z,13.00
2019-02-02T01:03:58.953Z,14.83
2019-02-02T01:06:28.615Z,20.10
2019-02-02T01:08:58.964Z,27.13
2019-02-02T01:11:28.661Z,34.33
2019-02-02T01:13:59.112Z,27.70
2019-02-02T01:16:28.801Z,27.37
2019-02-02T01:18:59.032Z,35.90
2019-02-02T01:21:28.776Z,57.75
2019-02-02T01:23:59.092Z,81.10
2019-02-02T01:26:28.880Z,87.95
2019-02-02T01:28:59.227Z,86.90
2019-02-02T01:31:29.020Z,60.80
2019-02-02T01:33:59.000Z,58.27
2019-02-02T01:36:29.076Z,58.47
2019-02-02T01:38:59.348Z,59.87
2019-02-02T01:41:29.539Z,57.97
2019-02-02T01:43:59.298Z,52.40
2019-02-02T01:46:29.315Z,37.03
2019-02-02T01:48:59.476Z,30.53
2019-02-02T01:51:29.480Z,23.20
2019-02-02T01:53:59.532Z,19.23
2019-02-02T01:56:29.544Z,19.20
2019-02-02T01:59:00.140Z,20.03
2019-02-02T02:01:30.349Z,17.60
2019-02-02T02:03:59.560Z,18.10
2019-02-02T02:06:29.692Z,16.67
2019-02-02T02:08:59.585Z,15.18
2019-02-02T02:11:29.668Z,12.83
2019-02-02T02:13:59.656Z,12.27
2019-02-02T02:16:29.709Z,15.07
2019-02-02T02:18:59.649Z,15.85
2019-02-02T02:21:36.122Z,17.53
2019-02-02T02:24:05.476Z,16.63
2019-02-02T02:26:35.028Z,16.77
2019-02-02T02:29:04.124Z,15.37
2019-02-02T02:31:33.547Z,16.70
2019-02-02T02:34:04.215Z,16.07
2019-02-02T02:36:34.325Z,16.10
2019-02-02T02:39:04.946Z,15.15
2019-02-02T02:41:34.157Z,15.80
2019-02-02T02:44:04.292Z,13.80
2019-02-02T02:46:34.043Z,14.15
2019-02-02T02:49:03.914Z,14.28
2019-02-02T02:51:33.717Z,12.87
2019-02-02T02:54:04.003Z,13.23
2019-02-02T02:56:35.118Z,13.90
2019-02-02T02:59:04.456Z,12.67
2019-02-02T03:01:35.367Z,13.17
2019-02-02T03:04:04.572Z,13.87
2019-02-02T03:06:34.451Z,12.90
2019-02-02T03:09:05.344Z,13.68
2019-02-02T03:11:34.808Z,14.00
2019-02-02T03:14:05.100Z,14.80
2019-02-02T03:16:35.532Z,13.60
2019-02-02T03:19:05.360Z,14.50
2019-02-02T03:21:35.184Z,15.40
2019-02-02T03:24:05.248Z,14.45
2019-02-02T03:26:35.633Z,13.80
2019-02-02T03:29:06.027Z,13.70
2019-02-02T03:31:35.856Z,13.85
2019-02-02T03:34:05.903Z,14.58
2019-02-02T03:36:35.930Z,14.10
2019-02-02T03:39:09.901Z,14.50
2019-02-02T03:41:39.368Z,14.60
2019-02-02T03:44:08.440Z,13.43
2019-02-02T03:46:37.704Z,13.53
2019-02-02T03:49:06.813Z,14.77
2019-02-02T03:51:36.805Z,13.43
2019-02-02T03:54:09.048Z,14.03
2019-02-02T03:56:37.420Z,14.13
2019-02-02T03:59:07.338Z,14.00
2019-02-02T04:01:37.405Z,13.50
2019-02-02T04:04:07.341Z,13.70
2019-02-02T04:06:37.316Z,14.33
2019-02-02T04:09:08.500Z,13.27
2019-02-02T04:11:38.040Z,14.17
2019-02-02T04:14:07.528Z,14.15
2019-02-02T04:16:37.520Z,13.10
2019-02-02T04:19:07.873Z,14.73
2019-02-02T04:21:37.827Z,13.95
2019-02-02T04:24:07.906Z,14.38
2019-02-02T04:26:38.012Z,14.18
2019-02-02T04:29:17.607Z,13.50
2019-02-02T04:31:39.454Z,13.63
2019-02-02T04:34:08.917Z,13.23
2019-02-02T04:36:38.566Z,13.55
2019-02-02T04:39:08.880Z,13.50
2019-02-02T04:41:39.176Z,14.10
2019-02-02T04:44:09.496Z,12.87
2019-02-02T04:46:39.383Z,13.15
2019-02-02T04:49:09.353Z,13.93
2019-02-02T04:51:39.768Z,13.35
2019-02-02T04:54:09.593Z,12.98
2019-02-02T04:56:39.937Z,12.93
2019-02-02T04:59:10.120Z,12.87
2019-02-02T05:01:40.233Z,13.53
2019-02-02T05:04:10.017Z,13.93
2019-02-02T05:06:41.704Z,14.35
2019-02-02T05:09:10.785Z,13.57
2019-02-02T05:11:40.662Z,13.23
2019-02-02T05:14:09.727Z,13.97
2019-02-02T05:16:39.109Z,13.73
2019-02-02T05:19:08.509Z,14.30
2019-02-02T05:21:37.636Z,13.10
2019-02-02T05:24:06.798Z,13.57
2019-02-02T05:26:35.903Z,13.57
2019-02-02T05:29:05.123Z,12.83
2019-02-02T05:31:35.136Z,12.47
2019-02-02T05:34:04.429Z,12.97
2019-02-02T05:36:33.612Z,12.43
2019-02-02T05:39:04.119Z,13.60
2019-02-02T05:41:33.177Z,13.70
2019-02-02T05:44:02.448Z,13.37
2019-02-02T05:46:31.605Z,13.47
2019-02-02T05:49:02.077Z,13.50
2019-02-02T05:51:32.073Z,12.93
2019-02-02T05:54:01.596Z,12.77
2019-02-02T05:56:30.933Z,12.10
2019-02-02T05:59:00.077Z,11.03
2019-02-02T06:01:30.199Z,10.70
2019-02-02T06:04:00.740Z,10.83
2019-02-02T06:06:29.936Z,9.93
2019-02-02T06:08:59.472Z,10.57
2019-02-02T06:11:28.969Z,10.40
2019-02-02T06:13:58.034Z,9.30
2019-02-02T06:16:27.180Z,9.53
2019-02-02T06:18:56.272Z,9.53
2019-02-02T06:21:25.433Z,9.00
2019-02-02T06:23:54.854Z,9.03
2019-02-02T06:26:23.996Z,9.00
2019-02-02T06:28:53.176Z,8.27
2019-02-02T06:31:22.888Z,8.27
2019-02-02T06:33:52.336Z,8.10
2019-02-02T06:36:21.476Z,7.90
2019-02-02T06:38:50.795Z,7.47
2019-02-02T06:41:20.201Z,7.73
2019-02-02T06:43:49.704Z,7.23
2019-02-02T06:46:18.932Z,7.00
2019-02-02T06:48:47.996Z,7.30
2019-02-02T06:51:17.456Z,7.57
2019-02-02T06:53:46.638Z,7.33
2019-02-02T06:56:15.724Z,7.63
2019-02-02T06:58:45.157Z,6.93
2019-02-02T07:01:14.468Z,8.50
2019-02-02T07:03:43.624Z,7.33
2019-02-02T07:06:13.004Z,9.00
2019-02-02T07:08:42.561Z,8.20
2019-02-02T07:11:11.904Z,7.53
2019-02-02T07:13:40.993Z,7.43
2019-02-02T07:16:10.409Z,7.07
2019-02-02T07:18:39.521Z,7.00
2019-02-02T07:21:08.875Z,6.90
2019-02-02T07:23:38.017Z,7.00
2019-02-02T07:26:07.279Z,7.03
2019-02-02T07:28:36.325Z,6.23
2019-02-02T07:31:05.428Z,6.63
2019-02-02T07:33:36.139Z,6.83
2019-02-02T07:36:05.280Z,6.70
2019-02-02T07:38:34.405Z,6.70
2019-02-02T07:41:03.528Z,6.90
2019-02-02T07:43:32.934Z,7.43
2019-02-02T07:46:02.073Z,7.57
2019-02-02T07:48:31.209Z,7.63
2019-02-02T07:51:00.417Z,7.03
2019-02-02T07:53:29.572Z,7.73
2019-02-02T07:55:59.730Z,7.73
2019-02-02T07:58:28.869Z,8.73
2019-02-02T08:00:58.320Z,8.47
2019-02-02T08:03:28.062Z,8.17
2019-02-02T08:05:57.393Z,8.37
2019-02-02T08:08:26.448Z,9.00
2019-02-02T08:10:55.702Z,8.20
2019-02-02T08:13:24.870Z,8.30
2019-02-02T08:15:53.979Z,8.33
2019-02-02T08:18:23.083Z,8.20
2019-02-02T08:20:52.181Z,8.70
2019-02-02T08:23:21.288Z,8.83
2019-02-02T08:25:50.497Z,8.80
2019-02-02T08:28:21.636Z,8.83
2019-02-02T08:30:52.752Z,9.40
2019-02-02T08:33:21.767Z,8.97
2019-02-02T08:35:51.014Z,9.63
2019-02-02T08:38:20.121Z,9.90
2019-02-02T08:40:49.982Z,10.07
2019-02-02T08:43:21.257Z,10.32
2019-02-02T08:45:50.565Z,10.73
2019-02-02T08:48:19.712Z,12.33
2019-02-02T08:50:49.872Z,11.63
2019-02-02T08:53:19.791Z,11.40
2019-02-02T08:55:51.960Z,11.43
2019-02-02T08:58:21.040Z,11.73
2019-02-02T09:00:50.453Z,11.73
2019-02-02T09:03:20.224Z,12.05
2019-02-02T09:05:51.033Z,12.43
2019-02-02T09:08:20.589Z,12.13
2019-02-02T09:10:50.422Z,11.93
2019-02-02T09:13:20.521Z,12.63
2019-02-02T09:15:50.932Z,14.00
2019-02-02T09:18:20.617Z,13.38
2019-02-02T09:20:50.770Z,14.13
2019-02-02T09:23:21.205Z,15.70
2019-02-02T09:25:51.836Z,17.60
2019-02-02T09:28:21.434Z,17.50
2019-02-02T09:30:51.357Z,17.07
2019-02-02T09:33:21.289Z,15.18
2019-02-02T09:35:51.269Z,15.63
2019-02-02T09:38:21.286Z,14.38
2019-02-02T09:40:51.308Z,14.43
2019-02-02T09:43:21.372Z,15.50
2019-02-02T09:45:51.400Z,16.00
2019-02-02T09:48:20.665Z,16.93
2019-02-02T09:50:49.764Z,16.52
2019-02-02T09:53:19.004Z,17.53
2019-02-02T09:55:48.448Z,17.77
2019-02-02T09:58:17.529Z,16.43
2019-02-02T10:00:47.281Z,16.13
2019-02-02T10:03:16.441Z,15.80
2019-02-02T10:05:45.680Z,18.40
2019-02-02T10:08:14.810Z,16.07
2019-02-02T10:10:44.022Z,17.70
2019-02-02T10:13:13.413Z,17.53
2019-02-02T10:15:42.488Z,18.03
2019-02-02T10:18:12.016Z,20.13
2019-02-02T10:20:41.744Z,18.50
2019-02-02T10:23:10.812Z,21.27
2019-02-02T10:25:40.286Z,19.93
2019-02-02T10:28:09.771Z,19.67
2019-02-02T10:30:41.081Z,18.97
2019-02-02T10:33:11.120Z,19.13
2019-02-02T10:35:40.397Z,19.00
2019-02-02T10:38:09.607Z,21.37
2019-02-02T10:40:38.801Z,21.70
2019-02-02T10:43:08.312Z,23.25
2019-02-02T10:45:37.755Z,25.00
2019-02-02T10:48:07.344Z,28.33
2019-02-02T10:50:36.612Z,29.97
2019-02-02T10:53:06.205Z,31.20
2019-02-02T10:55:35.613Z,36.60
2019-02-02T10:58:05.737Z,31.60
2019-02-02T11:00:37.015Z,31.60
2019-02-02T11:03:06.521Z,32.57
2019-02-02T11:05:35.743Z,34.53
2019-02-02T11:08:06.340Z,34.73
2019-02-02T11:10:35.866Z,35.93
2019-02-02T11:13:05.747Z,35.50
2019-02-02T11:15:34.877Z,36.10
2019-02-02T11:18:04.863Z,35.60
2019-02-02T11:20:34.763Z,33.55
2019-02-02T11:23:04.018Z,34.77
2019-02-02T11:25:33.559Z,34.70
2019-02-02T11:28:02.874Z,32.60
2019-02-02T11:30:32.909Z,33.60
2019-02-02T11:33:02.185Z,32.67
2019-02-02T11:35:31.878Z,33.13
2019-02-02T11:38:01.123Z,33.73
2019-02-02T11:40:31.995Z,30.80
2019-02-02T11:43:01.489Z,28.67
2019-02-02T11:45:30.597Z,32.67
2019-02-02T11:48:00.079Z,33.00
2019-02-02T11:50:29.517Z,34.07
2019-02-02T11:52:58.662Z,34.67
2019-02-02T11:55:28.766Z,34.90
2019-02-02T11:57:59.129Z,34.10
2019-02-02T12:00:34.301Z,35.17
2019-02-02T12:03:04.439Z,34.27
2019-02-02T12:05:34.065Z,35.80
2019-02-02T12:08:03.212Z,36.70
2019-02-02T12:10:32.328Z,36.87
2019-02-02T12:13:01.529Z,37.63
2019-02-02T12:15:30.703Z,39.00
2019-02-02T12:17:59.844Z,38.90
2019-02-02T12:20:32.952Z,39.97
2019-02-02T12:23:00.786Z,40.25
2019-02-02T12:25:30.277Z,39.37
2019-02-02T12:28:00.352Z,38.23
2019-02-02T12:30:34.509Z,40.10
2019-02-02T12:33:04.851Z,36.90
2019-02-02T12:35:34.262Z,42.10
2019-02-02T12:38:03.731Z,39.83
2019-02-02T12:40:33.475Z,41.63
2019-02-02T12:43:02.566Z,42.62
2019-02-02T12:45:34.860Z,41.80
2019-02-02T12:48:05.646Z,41.53
2019-02-02T12:50:34.836Z,37.97
2019-02-02T12:53:05.238Z,40.23
2019-02-02T12:55:35.004Z,38.37
2019-02-02T12:58:05.388Z,39.27
2019-02-02T13:00:34.547Z,38.67
2019-02-02T13:03:03.990Z,40.20
2019-02-02T13:05:33.127Z,35.40
2019-02-02T13:08:05.426Z,39.00
2019-02-02T13:10:35.272Z,39.27
2019-02-02T13:13:07.664Z,37.93
2019-02-02T13:15:37.002Z,39.13
2019-02-02T13:18:06.256Z,40.80
2019-02-02T13:20:35.416Z,42.53
2019-02-02T13:23:04.712Z,39.57
2019-02-02T13:25:34.021Z,40.73
2019-02-02T13:28:03.886Z,41.40
2019-02-02T13:30:34.877Z,42.60
2019-02-02T13:33:04.392Z,38.73
2019-02-02T13:35:35.520Z,40.30
2019-02-02T13:38:05.188Z,38.83
2019-02-02T13:40:34.368Z,41.20
2019-02-02T13:43:03.472Z,40.17
2019-02-02T13:45:33.409Z,37.88
2019-02-02T13:48:05.885Z,41.20
2019-02-02T13:50:35.471Z,41.60
2019-02-02T13:53:05.484Z,38.10
2019-02-02T13:55:34.664Z,40.50
2019-02-02T13:58:03.905Z,38.37
2019-02-02T14:00:33.533Z,35.27
2019-02-02T14:03:03.997Z,37.83
2019-02-02T14:05:34.265Z,37.85
2019-02-02T14:08:05.452Z,36.60
2019-02-02T14:10:35.284Z,36.60
2019-02-02T14:13:06.245Z,36.93
2019-02-02T14:15:35.376Z,36.20
2019-02-02T14:18:04.924Z,37.40
2019-02-02T14:20:36.601Z,38.17
2019-02-02T14:23:06.220Z,37.67
2019-02-02T14:25:35.566Z,39.93
2019-02-02T14:28:05.090Z,39.55
2019-02-02T14:30:35.956Z,40.58
2019-02-02T14:33:13.722Z,39.47
2019-02-02T14:35:35.924Z,41.67
2019-02-02T14:38:05.045Z,40.90
2019-02-02T14:40:35.404Z,40.50
2019-02-02T14:43:05.365Z,39.98
2019-02-02T14:45:35.812Z,42.40
2019-02-02T14:48:05.439Z,38.73
2019-02-02T14:50:35.505Z,43.67
2019-02-02T14:53:06.004Z,40.23
2019-02-02T14:55:37.324Z,42.35
2019-02-02T14:58:06.860Z,41.70
2019-02-02T15:00:36.267Z,43.27
2019-02-02T15:03:07.235Z,41.42
2019-02-02T15:05:43.137Z,43.60
2019-02-02T15:08:07.412Z,42.97
2019-02-02T15:10:36.517Z,43.13
2019-02-02T15:13:07.425Z,42.38
2019-02-02T15:15:36.528Z,42.57
2019-02-02T15:18:06.344Z,41.33
2019-02-02T15:20:37.161Z,43.10
2019-02-02T15:23:07.569Z,42.70
2019-02-02T15:25:37.157Z,41.93
2019-02-02T15:28:07.328Z,44.17
2019-02-02T15:30:37.356Z,45.73
2019-02-02T15:33:07.593Z,43.52
2019-02-02T15:35:37.571Z,42.77
2019-02-02T15:38:07.718Z,45.17
2019-02-02T15:40:37.855Z,42.93
2019-02-02T15:43:08.046Z,45.33
2019-02-02T15:45:38.820Z,43.97
2019-02-02T15:48:08.505Z,45.50
2019-02-02T15:50:38.256Z,41.23
2019-02-02T15:53:08.280Z,46.30
2019-02-02T15:55:38.276Z,43.13
2019-02-02T15:58:08.620Z,42.97
2019-02-02T16:00:39.368Z,43.13
2019-02-02T16:03:09.375Z,43.15
2019-02-02T16:05:39.171Z,44.33
2019-02-02T16:08:16.977Z,42.57
2019-02-02T16:10:46.232Z,41.67
2019-02-02T16:13:15.688Z,43.60
2019-02-02T16:15:45.326Z,44.63
2019-02-02T16:18:14.819Z,47.33
2019-02-02T16:20:45.029Z,45.40
2019-02-02T16:23:14.277Z,42.17
2019-02-02T16:25:43.853Z,43.40
2019-02-02T16:28:13.185Z,42.20
2019-02-02T16:30:42.633Z,44.40
2019-02-02T16:33:12.596Z,44.80
2019-02-02T16:35:41.724Z,43.67
2019-02-02T16:38:11.237Z,43.27
2019-02-02T16:40:41.943Z,42.33
2019-02-02T16:43:11.091Z,43.00
2019-02-02T16:45:40.280Z,43.67
2019-02-02T16:48:10.200Z,44.67
2019-02-02T16:50:41.288Z,43.17
2019-02-02T16:53:11.040Z,42.30
2019-02-02T16:55:40.408Z,45.85
2019-02-02T16:58:10.461Z,44.27
2019-02-02T17:00:40.532Z,43.50
2019-02-02T17:03:10.461Z,43.30
2019-02-02T17:05:41.096Z,45.15
2019-02-02T17:08:11.073Z,41.65
2019-02-02T17:10:40.428Z,42.83
2019-02-02T17:13:10.812Z,41.20
2019-02-02T17:15:41.017Z,42.00
2019-02-02T17:18:11.308Z,42.05
2019-02-02T17:20:43.553Z,41.35
2019-02-02T17:23:12.952Z,39.77
2019-02-02T17:25:42.169Z,40.80
2019-02-02T17:28:12.048Z,40.60
2019-02-02T17:30:41.444Z,40.53
2019-02-02T17:33:14.064Z,41.30
2019-02-02T17:35:43.542Z,41.80
2019-02-02T17:38:13.084Z,40.38
2019-02-02T17:40:42.220Z,43.07
2019-02-02T17:43:11.922Z,43.08
2019-02-02T17:45:42.125Z,46.28
2019-02-02T17:48:13.241Z,42.98
2019-02-02T17:50:42.891Z,44.80
2019-02-02T17:53:12.687Z,44.47
2019-02-02T17:55:42.681Z,43.75
2019-02-02T17:58:13.456Z,45.65
2019-02-02T18:00:48.052Z,45.03
2019-02-02T18:03:17.204Z,43.53
2019-02-02T18:05:46.341Z,41.47
2019-02-02T18:08:15.907Z,42.97
2019-02-02T18:10:45.317Z,42.53
2019-02-02T18:13:14.437Z,41.77
2019-02-02T18:15:44.028Z,40.88
2019-02-02T18:18:14.316Z,41.33
2019-02-02T18:20:44.336Z,43.83
2019-02-02T18:23:14.206Z,42.25
2019-02-02T18:25:44.395Z,42.83
2019-02-02T18:28:14.971Z,42.08
2019-02-02T18:30:45.097Z,43.65
2019-02-02T18:33:14.492Z,46.33
2019-02-02T18:35:45.221Z,47.07
2019-02-02T18:38:14.928Z,46.20
2019-02-02T18:40:45.290Z,45.93
2019-02-02T18:43:15.990Z,44.55
2019-02-02T18:45:45.332Z,46.80
2019-02-02T18:48:14.528Z,44.50
2019-02-02T18:50:43.960Z,44.10
2019-02-02T18:53:13.194Z,46.77
2019-02-02T18:55:55.321Z,44.83
2019-02-02T18:58:24.441Z,45.50
2019-02-02T19:00:53.610Z,44.80
2019-02-02T19:03:23.074Z,46.10
2019-02-02T19:05:52.129Z,47.37
2019-02-02T19:08:21.244Z,47.00
2019-02-02T19:10:50.449Z,51.83
2019-02-02T19:13:19.616Z,48.47
2019-02-02T19:15:49.005Z,49.10
2019-02-02T19:18:18.411Z,49.83
2019-02-02T19:20:47.503Z,49.37
2019-02-02T19:23:24.806Z,51.90
2019-02-02T19:25:47.660Z,50.57
2019-02-02T19:28:17.351Z,50.75
2019-02-02T19:30:47.103Z,50.12
2019-02-02T19:33:17.319Z,51.37
2019-02-02T19:35:47.332Z,47.77
2019-02-02T19:38:19.862Z,50.90
2019-02-02T19:40:49.813Z,51.97
2019-02-02T19:43:19.064Z,50.90
2019-02-02T19:45:48.228Z,53.30
2019-02-02T19:48:17.857Z,53.63
2019-02-02T19:50:48.663Z,54.60
2019-02-02T19:53:18.312Z,50.75
2019-02-02T19:55:48.182Z,53.05
2019-02-02T19:58:18.189Z,56.07
2019-02-02T20:00:48.367Z,56.40
2019-02-02T20:03:18.280Z,59.38
2019-02-02T20:05:48.112Z,56.50
2019-02-02T20:08:18.210Z,56.60
2019-02-02T20:10:49.332Z,59.73
2019-02-02T20:13:19.588Z,56.63
2019-02-02T20:15:49.041Z,54.90
2019-02-02T20:18:18.367Z,55.33
2019-02-02T20:20:48.818Z,58.57
2019-02-02T20:23:18.529Z,55.12
2019-02-02T20:25:48.928Z,56.87
2019-02-02T20:28:18.800Z,57.97
2019-02-02T20:30:49.080Z,57.77
2019-02-02T20:33:20.147Z,57.13
2019-02-02T20:35:49.600Z,57.27
2019-02-02T20:38:19.505Z,56.23
2019-02-02T20:40:49.313Z,57.08
2019-02-02T20:43:19.594Z,54.93
2019-02-02T20:45:49.540Z,53.70
2019-02-02T20:48:19.718Z,55.50
2019-02-02T20:50:50.525Z,55.60
2019-02-02T20:53:20.121Z,54.58
2019-02-02T20:55:49.930Z,53.47
2019-02-02T20:58:20.054Z,55.45
2019-02-02T21:00:50.024Z,54.10
2019-02-02T21:03:20.281Z,50.77
2019-02-02T21:05:52.415Z,50.73
2019-02-02T21:08:21.960Z,52.27
2019-02-02T21:10:51.149Z,52.67
2019-02-02T21:13:20.984Z,52.53
2019-02-02T21:15:51.049Z,52.03
2019-02-02T21:18:21.118Z,52.33
2019-02-02T21:20:51.573Z,51.58
2019-02-02T21:23:21.561Z,53.70
2019-02-02T21:25:51.808Z,52.07
2019-02-02T21:28:22.304Z,51.25
2019-02-02T21:30:52.050Z,49.60
2019-02-02T21:33:22.653Z,46.90
2019-02-02T21:36:03.276Z,48.00
2019-02-02T21:38:23.472Z,47.83
2019-02-02T21:40:52.587Z,45.60
2019-02-02T21:43:23.292Z,46.63
2019-02-02T21:45:52.712Z,48.13
2019-02-02T21:48:22.713Z,47.48
2019-02-02T21:50:52.620Z,44.40
2019-02-02T21:53:22.598Z,48.68
2019-02-02T21:55:52.493Z,46.70
2019-02-02T21:58:22.681Z,48.07
2019-02-02T22:00:52.631Z,44.90
2019-02-02T22:03:22.752Z,44.87
2019-02-02T22:05:52.942Z,45.45
2019-02-02T22:08:22.772Z,44.73
2019-02-02T22:10:53.132Z,46.07
2019-02-02T22:13:23.051Z,45.90
2019-02-02T22:15:53.004Z,45.83
2019-02-02T22:18:23.070Z,43.33
2019-02-02T22:20:53.451Z,41.92
2019-02-02T22:23:23.317Z,41.10
2019-02-02T22:25:53.314Z,43.05
2019-02-02T22:28:23.369Z,42.78
2019-02-02T22:30:53.885Z,41.13
2019-02-02T22:33:23.444Z,42.07
2019-02-02T22:35:53.820Z,42.33
2019-02-02T22:38:24.061Z,43.92
2019-02-02T22:40:53.969Z,39.88
2019-02-02T22:43:23.757Z,40.52
2019-02-02T22:45:53.977Z,42.75
2019-02-02T22:48:24.090Z,43.50
2019-02-02T22:50:54.106Z,41.00
2019-02-02T22:53:24.229Z,39.33
2019-02-02T22:55:54.000Z,42.73
2019-02-02T22:58:23.946Z,41.18
2019-02-02T23:01:10.958Z,44.08
2019-02-02T23:04:05.785Z,44.00
2019-02-02T23:06:56.009Z,48.43
2019-02-02T23:09:52.409Z,46.93
2019-02-02T23:12:54.525Z,48.90
2019-02-02T23:16:13.407Z,51.60
2019-02-02T23:18:49.962Z,53.60
2019-02-02T23:21:19.332Z,49.70
2019-02-02T23:23:48.829Z,51.80
2019-02-02T23:26:17.984Z,52.13
2019-02-02T23:28:47.168Z,56.13
2019-02-02T23:31:16.549Z,56.80
2019-02-02T23:33:45.732Z,56.20
2019-02-02T23:36:15.164Z,55.33
2019-02-02T23:38:44.496Z,53.80
2019-02-02T23:41:14.765Z,57.80
2019-02-02T23:43:44.577Z,54.90
2019-02-02T23:46:14.332Z,57.07
2019-02-02T23:48:43.564Z,55.70
2019-02-02T23:51:12.981Z,54.33
2019-02-02T23:53:42.459Z,52.67
2019-02-02T23:56:11.562Z,53.67
2019-02-02T23:58:40.644Z,55.57
